Time;durP1;ratioP1;P1;durP2;ratioP2;P2;SDS_P1;SDS_P2;PMS_P1;PMS_P2;Temp;Humidity;BMP_temperature;BMP_pressure;BME280_temperature;BME280_humidity;BME280_pressure;Samples;Min_cycle;Max_cycle;Signal;HPM_P1;HPM_P2
2023/01/25 00:02:21;;;;;;;0.00;0.00;;;3.60;99.90;;;;;;5012641;28;20608;-72
2023/01/25 00:04:47;;;;;;;0.00;0.00;;;3.70;99.90;;;;;;4998737;28;20089;-72
2023/01/25 00:07:13;;;;;;;0.00;0.00;;;3.60;99.90;;;;;;4993379;28;20050;-72
2023/01/25 00:09:39;;;;;;;0.00;0.00;;;3.60;99.90;;;;;;4995078;28;20025;-72
2023/01/25 00:12:04;;;;;;;0.00;0.00;;;3.50;99.90;;;;;;4995170;28;20096;-72
2023/01/25 00:14:30;;;;;;;0.00;0.00;;;3.60;99.90;;;;;;4993899;28;20504;-72
2023/01/25 00:16:55;;;;;;;0.00;0.00;;;3.60;99.90;;;;;;5000533;28;20080;-72
2023/01/25 00:19:22;;;;;;;0.00;0.00;;;3.60;99.90;;;;;;5000568;28;20030;-71
2023/01/25 00:21:48;;;;;;;;;;;3.60;99.90;;;;;;5003141;28;20028;-72
2023/01/25 00:24:14;;;;;;;0.00;0.00;;;3.60;99.90;;;;;;5009907;28;19913;-72
2023/01/25 00:26:42;;;;;;;0.15;0.15;;;3.60;99.90;;;;;;5030056;28;20058;-72
2023/01/25 00:29:12;;;;;;;0.00;0.00;;;3.60;99.90;;;;;;4995445;28;20021;-72
2023/01/25 00:31:46;;;;;;;0.10;0.10;;;3.50;99.90;;;;;;4989380;28;20015;-71
2023/01/25 00:34:25;;;;;;;0.00;0.00;;;3.60;99.90;;;;;;4997172;28;20018;-72
2023/01/25 00:37:01;;;;;;;0.00;0.00;;;3.60;99.90;;;;;;5028203;28;20026;-72
2023/01/25 00:39:27;;;;;;;0.00;0.00;;;3.60;99.90;;;;;;4993411;28;20045;-72
2023/01/25 00:41:53;;;;;;;0.00;0.00;;;3.60;99.90;;;;;;4993118;28;20336;-72
2023/01/25 00:44:19;;;;;;;0.00;0.00;;;3.50;99.90;;;;;;4998525;28;20028;-72
2023/01/25 00:46:45;;;;;;;0.00;0.00;;;3.60;99.90;;;;;;4992529;28;20432;-72
2023/01/25 00:49:29;;;;;;;0.00;0.00;;;3.60;99.90;;;;;;4999162;28;20025;-72
2023/01/25 00:51:55;;;;;;;0.00;0.00;;;3.60;99.90;;;;;;4989835;28;20019;-72
2023/01/25 00:54:21;;;;;;;0.00;0.00;;;3.60;99.90;;;;;;4997988;28;20026;-72
2023/01/25 00:56:47;;;;;;;0.00;0.00;;;3.60;99.90;;;;;;4994197;28;20029;-72
2023/01/25 00:59:13;;;;;;;0.00;0.00;;;3.60;99.90;;;;;;4994616;28;20085;-72
2023/01/25 01:01:43;;;;;;;0.00;0.00;;;3.60;99.90;;;;;;5007122;28;20078;-72
2023/01/25 01:04:09;;;;;;;0.00;0.00;;;3.60;99.90;;;;;;4993442;28;20030;-72
2023/01/25 01:06:38;;;;;;;0.00;0.00;;;3.60;99.90;;;;;;4993091;28;20551;-72
2023/01/25 01:09:06;;;;;;;0.00;0.00;;;3.60;99.90;;;;;;4992648;28;20019;-72
2023/01/25 01:11:33;;;;;;;0.00;0.00;;;3.60;99.90;;;;;;4988963;28;20026;-73
2023/01/25 01:13:59;;;;;;;0.00;0.00;;;3.60;99.90;;;;;;4999773;28;20021;-72
2023/01/25 01:16:25;;;;;;;0.00;0.00;;;3.60;99.90;;;;;;4992583;28;20360;-72
2023/01/25 01:18:51;;;;;;;0.00;0.00;;;3.50;99.90;;;;;;5010096;28;20034;-72
2023/01/25 01:21:17;;;;;;;0.00;0.00;;;3.60;99.90;;;;;;5013815;28;20054;-72
2023/01/25 01:23:44;;;;;;;0.00;0.00;;;3.60;99.90;;;;;;5001690;28;20563;-72
2023/01/25 01:26:13;;;;;;;0.00;0.00;;;3.60;99.90;;;;;;5008125;28;20090;-72
2023/01/25 01:28:39;;;;;;;0.00;0.00;;;3.60;99.90;;;;;;4995106;28;20034;-72
2023/01/25 01:31:09;;;;;;;0.00;0.00;;;3.60;99.90;;;;;;4992082;28;20080;-72
2023/01/25 01:33:34;;;;;;;0.00;0.00;;;3.60;99.90;;;;;;4993329;28;20034;-72
2023/01/25 01:36:11;;;;;;;0.10;0.10;;;3.60;99.90;;;;;;5011182;28;20022;-72
2023/01/25 01:38:36;;;;;;;0.00;0.00;;;3.60;99.90;;;;;;4987900;28;20045;-72
2023/01/25 01:41:02;;;;;;;0.00;0.00;;;3.60;99.90;;;;;;4988951;28;20038;-72
2023/01/25 01:43:31;;;;;;;0.00;0.00;;;3.60;99.90;;;;;;4991833;28;20048;-72
2023/01/25 01:46:00;;;;;;;0.00;0.00;;;3.60;99.90;;;;;;4996806;28;20459;-72
2023/01/25 01:48:41;;;;;;;0.00;0.00;;;3.60;99.90;;;;;;4998180;28;20022;-73
2023/01/25 01:51:22;;;;;;;0.00;0.00;;;3.50;99.90;;;;;;4990371;28;20477;-72
2023/01/25 01:53:57;;;;;;;0.00;0.00;;;3.50;99.90;;;;;;5010317;28;20028;-72
2023/01/25 01:56:31;;;;;;;0.00;0.00;;;3.60;99.90;;;;;;4993097;28;20022;-72
2023/01/25 01:58:59;;;;;;;0.00;0.00;;;3.60;99.90;;;;;;5004618;28;20041;-72
2023/01/25 02:01:24;;;;;;;0.00;0.00;;;3.50;99.90;;;;;;5020167;28;20030;-71
2023/01/25 02:03:51;;;;;;;0.00;0.00;;;3.50;99.90;;;;;;4991781;28;20423;-72
2023/01/25 02:06:27;;;;;;;0.00;0.00;;;3.60;99.90;;;;;;4988397;28;20285;-72
2023/01/25 02:08:54;;;;;;;0.00;0.00;;;3.60;99.90;;;;;;4995600;28;20640;-72
2023/01/25 02:11:20;;;;;;;0.10;0.10;;;3.70;99.90;;;;;;5006616;28;20080;-72
2023/01/25 02:13:47;;;;;;;0.00;0.00;;;3.70;99.90;;;;;;4996482;28;20033;-72
2023/01/25 02:16:20;;;;;;;0.00;0.00;;;3.60;99.90;;;;;;5001552;28;20057;-72
2023/01/25 02:18:46;;;;;;;0.00;0.00;;;3.60;99.90;;;;;;5000213;28;20025;-72
2023/01/25 02:21:12;;;;;;;0.00;0.00;;;3.70;99.90;;;;;;4993365;28;20724;-72
2023/01/25 02:23:49;;;;;;;0.00;0.00;;;3.60;99.90;;;;;;5000698;28;20379;-73
2023/01/25 02:26:18;;;;;;;0.00;0.00;;;3.60;99.90;;;;;;4998553;28;20764;-72
2023/01/25 02:28:55;;;;;;;0.43;0.43;;;3.70;99.90;;;;;;4994506;28;20022;-72
2023/01/25 02:31:21;;;;;;;0.00;0.00;;;3.60;99.90;;;;;;5010399;28;20509;-72
2023/01/25 02:33:46;;;;;;;0.00;0.00;;;3.60;99.90;;;;;;4997566;28;20026;-72
2023/01/25 02:36:26;;;;;;;0.00;0.00;;;3.50;99.90;;;;;;4996763;28;20058;-72
2023/01/25 02:38:56;;;;;;;0.00;0.00;;;3.60;99.90;;;;;;4995744;28;20039;-72
2023/01/25 02:41:30;;;;;;;0.00;0.00;;;3.50;99.90;;;;;;4990805;28;20026;-72
2023/01/25 02:43:56;;;;;;;0.93;0.93;;;3.50;99.90;;;;;;4987926;28;20058;-72
2023/01/25 02:46:26;;;;;;;0.00;0.00;;;3.50;99.90;;;;;;4991803;28;20061;-72
2023/01/25 02:48:55;;;;;;;0.00;0.00;;;3.50;99.90;;;;;;4994482;28;20471;-72
2023/01/25 02:51:23;;;;;;;0.00;0.00;;;3.50;99.90;;;;;;4995127;28;20443;-72
2023/01/25 02:53:49;;;;;;;0.00;0.00;;;3.60;99.90;;;;;;4992924;28;20033;-72
2023/01/25 02:56:16;;;;;;;0.00;0.00;;;3.60;99.90;;;;;;5009333;28;20023;-72
2023/01/25 02:58:42;;;;;;;0.00;0.00;;;3.60;99.90;;;;;;5011120;28;20129;-72
2023/01/25 03:01:08;;;;;;;0.00;0.00;;;3.60;99.90;;;;;;5010005;28;20152;-72
2023/01/25 03:03:33;;;;;;;0.00;0.00;;;3.60;99.90;;;;;;4992524;28;20603;-72
2023/01/25 03:05:59;;;;;;;0.00;0.00;;;3.60;99.90;;;;;;5014031;28;20026;-72
2023/01/25 03:08:26;;;;;;;0.00;0.00;;;3.60;99.90;;;;;;4997131;28;20018;-72
2023/01/25 03:10:56;;;;;;;0.20;0.20;;;3.60;99.90;;;;;;4992390;28;20018;-72
2023/01/25 03:13:23;;;;;;;0.00;0.00;;;3.60;99.90;;;;;;4991466;28;20018;-72
2023/01/25 03:15:48;;;;;;;0.00;0.00;;;3.60;99.90;;;;;;5000806;28;20022;-72
2023/01/25 03:18:16;;;;;;;0.00;0.00;;;3.60;99.90;;;;;;4993438;28;20034;-73
2023/01/25 03:20:42;;;;;;;0.00;0.00;;;3.50;99.90;;;;;;5004939;28;20085;-72
2023/01/25 03:23:10;;;;;;;0.00;0.00;;;3.50;99.90;;;;;;4989987;28;20104;-72
2023/01/25 03:25:36;;;;;;;0.00;0.00;;;3.50;99.90;;;;;;4987306;28;20360;-71
2023/01/25 03:28:02;;;;;;;0.00;0.00;;;3.60;99.90;;;;;;4991841;28;20022;-72
2023/01/25 03:30:27;;;;;;;0.00;0.00;;;3.60;99.90;;;;;;4995370;28;20050;-72
2023/01/25 03:32:58;;;;;;;0.00;0.00;;;3.60;99.90;;;;;;4990516;28;20018;-72
2023/01/25 03:35:24;;;;;;;0.00;0.00;;;3.50;99.90;;;;;;4999632;28;20026;-72
2023/01/25 03:37:49;;;;;;;0.00;0.00;;;3.50;99.90;;;;;;5007616;28;20049;-72
2023/01/25 03:40:15;;;;;;;0.00;0.00;;;3.50;99.90;;;;;;4997364;28;20049;-72
2023/01/25 03:42:41;;;;;;;0.07;0.07;;;3.50;99.90;;;;;;4996047;28;20045;-72
2023/01/25 03:45:07;;;;;;;0.00;0.00;;;3.60;99.90;;;;;;5015730;28;20108;-72
2023/01/25 03:47:32;;;;;;;0.00;0.00;;;3.50;99.90;;;;;;5005955;28;20033;-72
2023/01/25 03:49:58;;;;;;;0.00;0.00;;;3.50;99.90;;;;;;4995827;28;20030;-72
2023/01/25 03:52:25;;;;;;;0.00;0.00;;;3.60;99.90;;;;;;4992646;28;20045;-71
2023/01/25 03:54:51;;;;;;;0.00;0.00;;;3.50;99.90;;;;;;4993494;28;20484;-72
2023/01/25 03:57:16;;;;;;;0.00;0.00;;;3.50;99.90;;;;;;4989581;28;20033;-72
2023/01/25 03:59:42;;;;;;;0.00;0.00;;;3.60;99.90;;;;;;4990239;28;20025;-72
2023/01/25 04:02:09;;;;;;;0.00;0.00;;;3.50;99.90;;;;;;4991286;28;20480;-72
2023/01/25 04:04:34;;;;;;;;;;;3.40;99.90;;;;;;5013714;28;20383;-72
2023/01/25 04:07:01;;;;;;;0.15;0.15;;;3.50;99.90;;;;;;4992662;28;19910;-72
2023/01/25 04:09:26;;;;;;;0.00;0.00;;;3.50;99.90;;;;;;5004334;28;20447;-72
2023/01/25 04:11:53;;;;;;;0.00;0.00;;;3.50;99.90;;;;;;4999486;28;20023;-72
2023/01/25 04:14:19;;;;;;;0.00;0.00;;;3.40;99.90;;;;;;4996437;28;20578;-72
2023/01/25 04:16:45;;;;;;;0.00;0.00;;;3.40;99.90;;;;;;4996496;28;20126;-72
2023/01/25 04:19:11;;;;;;;0.00;0.00;;;3.40;99.90;;;;;;4997509;28;20095;-72
2023/01/25 04:21:38;;;;;;;0.00;0.00;;;3.40;99.90;;;;;;5005057;28;20465;-72
2023/01/25 04:24:03;;;;;;;0.00;0.00;;;3.40;99.90;;;;;;5010053;28;20466;-72
2023/01/25 04:26:29;;;;;;;0.00;0.00;;;3.40;99.90;;;;;;4994867;28;20113;-72
2023/01/25 04:28:55;;;;;;;0.30;0.30;;;3.50;99.90;;;;;;5017677;28;20100;-72
2023/01/25 04:31:20;;;;;;;0.00;0.00;;;3.40;99.90;;;;;;4992985;28;20023;-72
2023/01/25 04:33:46;;;;;;;0.00;0.00;;;3.30;99.90;;;;;;5015561;28;20033;-72
2023/01/25 04:36:12;;;;;;;0.00;0.00;;;3.30;99.90;;;;;;4993484;28;20032;-72
2023/01/25 04:38:37;;;;;;;0.00;0.00;;;3.40;99.90;;;;;;4994812;28;20089;-72
2023/01/25 04:41:04;;;;;;;0.00;0.00;;;3.30;99.90;;;;;;4995239;28;20050;-72
2023/01/25 04:43:30;;;;;;;0.00;0.00;;;3.40;99.90;;;;;;4992237;28;20448;-72
2023/01/25 04:45:56;;;;;;;0.00;0.00;;;3.40;99.90;;;;;;4998020;28;20065;-72
2023/01/25 04:48:22;;;;;;;0.00;0.00;;;3.20;99.90;;;;;;5002083;28;20041;-72
2023/01/25 04:50:49;;;;;;;0.00;0.00;;;3.30;99.90;;;;;;5001708;28;20095;-72
2023/01/25 04:53:14;;;;;;;;;;;3.40;99.90;;;;;;4997327;28;20037;-72
2023/01/25 04:55:44;;;;;;;0.00;0.00;;;3.40;99.90;;;;;;4989571;28;19909;-72
2023/01/25 04:58:10;;;;;;;0.00;0.00;;;3.40;99.90;;;;;;5000103;28;20110;-71
2023/01/25 05:00:36;;;;;;;0.00;0.00;;;3.40;99.90;;;;;;5013994;28;20116;-72
2023/01/25 05:03:02;;;;;;;0.00;0.00;;;3.40;99.90;;;;;;4988458;28;20101;-72
2023/01/25 05:05:28;;;;;;;0.00;0.00;;;3.40;99.90;;;;;;4991745;28;20375;-72
2023/01/25 05:07:53;;;;;;;0.00;0.00;;;3.40;99.90;;;;;;4991576;28;20030;-72
2023/01/25 05:10:19;;;;;;;0.00;0.00;;;3.40;99.90;;;;;;5014203;28;20027;-72
2023/01/25 05:12:45;;;;;;;0.00;0.00;;;3.50;99.90;;;;;;5001447;28;20851;-72
2023/01/25 05:15:11;;;;;;;0.00;0.00;;;3.40;99.90;;;;;;4997647;28;20146;-73
2023/01/25 05:17:36;;;;;;;0.00;0.00;;;3.40;99.90;;;;;;4993897;28;20113;-72
2023/01/25 05:20:03;;;;;;;0.00;0.00;;;3.40;99.90;;;;;;4994308;28;20109;-72
2023/01/25 05:22:28;;;;;;;0.00;0.00;;;3.40;99.90;;;;;;4996450;28;20030;-72
2023/01/25 05:24:57;;;;;;;0.00;0.00;;;3.40;99.90;;;;;;5009745;28;20030;-73
2023/01/25 05:27:24;;;;;;;0.00;0.00;;;3.30;99.90;;;;;;4995766;28;20018;-72
2023/01/25 05:29:50;;;;;;;0.00;0.00;;;3.30;99.90;;;;;;5007890;28;20468;-72
2023/01/25 05:32:18;;;;;;;0.00;0.00;;;3.30;99.90;;;;;;4994447;28;20084;-72
2023/01/25 05:34:45;;;;;;;0.00;0.00;;;3.30;99.90;;;;;;4991880;28;20041;-73
2023/01/25 05:37:14;;;;;;;0.00;0.00;;;3.30;99.90;;;;;;4991713;28;20483;-72
2023/01/25 05:39:40;;;;;;;0.00;0.00;;;3.30;99.90;;;;;;5010266;28;20034;-71
2023/01/25 05:42:24;;;;;;;0.00;0.00;;;3.30;99.90;;;;;;5000649;28;20029;-73
2023/01/25 05:44:50;;;;;;;0.00;0.00;;;3.30;99.90;;;;;;4989698;28;20037;-73
2023/01/25 05:47:19;;;;;;;0.00;0.00;;;3.30;99.90;;;;;;4995811;28;20076;-73
2023/01/25 05:49:45;;;;;;;0.00;0.00;;;3.20;99.90;;;;;;5013618;28;20053;-73
2023/01/25 05:52:15;;;;;;;0.00;0.00;;;3.20;99.90;;;;;;4988867;28;20014;-73
2023/01/25 05:54:41;;;;;;;0.00;0.00;;;3.30;99.90;;;;;;5008635;28;20037;-72
2023/01/25 05:57:07;;;;;;;0.00;0.00;;;3.30;99.90;;;;;;5016153;28;20026;-73
2023/01/25 05:59:34;;;;;;;0.00;0.00;;;3.30;99.90;;;;;;4995088;28;20094;-73
2023/01/25 06:02:07;;;;;;;;;;;3.20;99.90;;;;;;4993638;28;20101;-73
2023/01/25 06:04:33;;;;;;;0.00;0.00;;;3.20;99.90;;;;;;4989728;28;19993;-73
2023/01/25 06:06:58;;;;;;;0.00;0.00;;;3.20;99.90;;;;;;4997256;28;20140;-73
2023/01/25 06:09:25;;;;;;;0.00;0.00;;;3.20;99.90;;;;;;4995771;28;20504;-71
2023/01/25 06:11:51;;;;;;;0.20;0.20;;;3.30;99.90;;;;;;4994856;28;20019;-72
2023/01/25 06:14:17;;;;;;;0.00;0.00;;;3.30;99.90;;;;;;5000435;28;20029;-73
2023/01/25 06:16:43;;;;;;;0.00;0.00;;;3.30;99.90;;;;;;4994143;28;20034;-73
2023/01/25 06:19:10;;;;;;;0.00;0.00;;;3.30;99.90;;;;;;5006948;28;20026;-72
2023/01/25 06:21:36;;;;;;;0.00;0.00;;;3.30;99.90;;;;;;4988339;28;20033;-72
2023/01/25 06:29:07;;;;;;;0.00;0.00;;;3.30;99.90;;;;;;4931654;29;20524;-73
2023/01/25 06:31:33;;;;;;;0.00;0.00;;;3.20;99.90;;;;;;4940376;28;20024;-72
2023/01/25 06:34:03;;;;;;;0.00;0.00;;;3.30;99.90;;;;;;4931955;29;20023;-73
2023/01/25 06:36:29;;;;;;;0.00;0.00;;;3.30;99.90;;;;;;4927577;29;20047;-71
2023/01/25 06:38:54;;;;;;;0.00;0.00;;;3.20;99.90;;;;;;4927076;29;20044;-73
2023/01/25 06:41:21;;;;;;;0.00;0.00;;;3.20;99.90;;;;;;4923556;29;20390;-72
2023/01/25 06:43:49;;;;;;;0.00;0.00;;;3.20;99.90;;;;;;4921730;29;20035;-72
2023/01/25 06:46:15;;;;;;;0.00;0.00;;;3.20;99.90;;;;;;4928168;29;20131;-72
2023/01/25 06:48:44;;;;;;;0.00;0.00;;;3.20;99.90;;;;;;4926471;29;20111;-72
2023/01/25 06:51:11;;;;;;;0.00;0.00;;;3.20;99.90;;;;;;4929798;29;20035;-72
2023/01/25 06:53:40;;;;;;;0.00;0.00;;;3.10;99.90;;;;;;4927238;29;20020;-72
2023/01/25 06:56:07;;;;;;;0.00;0.00;;;3.10;99.90;;;;;;4925794;29;20034;-72
2023/01/25 06:58:33;;;;;;;0.00;0.00;;;3.10;99.90;;;;;;4924805;29;20039;-72
2023/01/25 07:01:10;;;;;;;0.00;0.00;;;3.20;99.90;;;;;;4925456;29;20446;-73
2023/01/25 07:03:36;;;;;;;0.00;0.00;;;3.20;99.90;;;;;;4926289;29;20276;-72
2023/01/25 07:06:04;;;;;;;0.00;0.00;;;3.20;99.90;;;;;;4927665;29;20038;-72
2023/01/25 07:08:34;;;;;;;0.00;0.00;;;3.30;99.90;;;;;;4931775;29;20031;-72
2023/01/25 07:11:03;;;;;;;0.00;0.00;;;3.30;99.90;;;;;;4919789;29;20404;-74
2023/01/25 07:13:30;;;;;;;0.00;0.00;;;3.40;99.90;;;;;;4927424;29;20028;-72
2023/01/25 07:16:00;;;;;;;0.63;0.63;;;3.40;99.90;;;;;;4927530;29;20016;-71
2023/01/25 07:18:28;;;;;;;0.00;0.00;;;3.40;99.90;;;;;;4925577;29;20521;-72
2023/01/25 07:21:00;;;;;;;0.00;0.00;;;3.40;99.90;;;;;;4927487;29;20024;-73
2023/01/25 07:23:26;;;;;;;0.00;0.00;;;3.40;99.90;;;;;;4927458;29;20469;-71
2023/01/25 07:25:52;;;;;;;0.10;0.10;;;3.10;99.90;;;;;;4942100;28;20031;-71
2023/01/25 07:28:18;;;;;;;0.00;0.00;;;3.10;99.90;;;;;;4927228;29;20059;-72
2023/01/25 07:30:44;;;;;;;0.00;0.00;;;3.20;99.90;;;;;;4930213;29;20032;-71
2023/01/25 07:33:10;;;;;;;0.00;0.00;;;3.30;99.90;;;;;;4928314;29;20031;-72
2023/01/25 07:35:36;;;;;;;0.00;0.00;;;3.30;99.90;;;;;;4928041;29;20038;-72
2023/01/25 07:38:02;;;;;;;0.00;0.00;;;3.30;99.90;;;;;;4939811;28;20028;-71
2023/01/25 07:40:28;;;;;;;0.00;0.00;;;3.40;99.90;;;;;;4925527;29;20275;-72
2023/01/25 07:42:53;;;;;;;0.00;0.00;;;3.50;99.90;;;;;;4927174;29;20040;-70
2023/01/25 07:45:19;;;;;;;0.00;0.00;;;3.60;99.90;;;;;;4930980;29;20033;-72
2023/01/25 07:47:45;;;;;;;0.00;0.00;;;3.60;99.90;;;;;;4932310;29;20020;-72
2023/01/25 07:50:11;;;;;;;0.13;0.13;;;3.60;99.90;;;;;;4931648;28;20027;-71
2023/01/25 07:52:37;;;;;;;0.30;0.25;;;3.60;99.90;;;;;;4929839;29;20032;-72
2023/01/25 07:55:04;;;;;;;0.00;0.00;;;3.60;99.90;;;;;;4930431;29;20091;-72
2023/01/25 07:57:29;;;;;;;0.00;0.00;;;3.70;99.90;;;;;;4920716;29;20016;-72
2023/01/25 07:59:55;;;;;;;0.00;0.00;;;3.60;99.90;;;;;;4930750;29;20083;-72
2023/01/25 08:02:21;;;;;;;0.00;0.00;;;3.50;99.90;;;;;;4942776;28;20024;-72
2023/01/25 08:04:47;;;;;;;0.00;0.00;;;3.50;99.90;;;;;;4930971;29;20019;-73
2023/01/25 08:07:13;;;;;;;0.00;0.00;;;3.60;99.90;;;;;;4929398;29;20050;-71
2023/01/25 08:09:41;;;;;;;0.00;0.00;;;3.40;99.90;;;;;;4930423;29;20414;-71
2023/01/25 08:12:07;;;;;;;0.00;0.00;;;3.50;99.90;;;;;;4929822;29;20111;-72
2023/01/25 08:14:33;;;;;;;0.00;0.00;;;3.50;99.90;;;;;;4930218;29;20024;-72
2023/01/25 08:16:59;;;;;;;0.00;0.00;;;3.60;99.90;;;;;;4930543;29;20059;-72
2023/01/25 08:19:25;;;;;;;0.00;0.00;;;3.70;99.90;;;;;;4928203;29;20554;-71
2023/01/25 08:21:51;;;;;;;0.00;0.00;;;3.70;99.90;;;;;;4926309;29;20028;-72
2023/01/25 08:24:16;;;;;;;0.00;0.00;;;3.50;99.90;;;;;;4926936;29;20035;-72
2023/01/25 08:26:42;;;;;;;0.00;0.00;;;3.60;99.90;;;;;;4928177;29;20682;-73
2023/01/25 08:29:10;;;;;;;0.00;0.00;;;3.60;99.90;;;;;;4929805;29;20043;-71
2023/01/25 08:31:38;;;;;;;0.73;0.65;;;3.60;99.90;;;;;;4929692;29;20102;-71
2023/01/25 08:34:04;;;;;;;0.00;0.00;;;3.70;99.90;;;;;;4930501;29;20686;-71
2023/01/25 08:36:30;;;;;;;0.00;0.00;;;3.70;99.90;;;;;;4930300;29;20036;-72
2023/01/25 08:38:58;;;;;;;0.00;0.00;;;3.70;99.90;;;;;;4926456;29;20043;-71
2023/01/25 08:41:26;;;;;;;0.90;0.80;;;3.70;99.90;;;;;;4924687;29;20032;-72
2023/01/25 08:43:54;;;;;;;0.00;0.00;;;3.70;99.90;;;;;;4936158;29;20537;-72
2023/01/25 08:46:20;;;;;;;0.00;0.00;;;3.70;99.90;;;;;;4931115;29;20027;-72
2023/01/25 08:48:46;;;;;;;0.00;0.00;;;3.70;99.90;;;;;;4931787;29;20058;-72
2023/01/25 08:51:13;;;;;;;0.00;0.00;;;3.70;99.90;;;;;;4929369;29;21435;-72
2023/01/25 08:53:40;;;;;;;0.00;0.00;;;3.60;99.90;;;;;;4929915;29;20047;-74
2023/01/25 08:56:08;;;;;;;0.00;0.00;;;3.70;99.90;;;;;;4929962;29;20079;-71
2023/01/25 08:58:35;;;;;;;0.00;0.00;;;3.70;99.90;;;;;;4929091;29;20035;-71
2023/01/25 09:01:06;;;;;;;0.00;0.00;;;3.90;99.90;;;;;;4928248;29;20027;-71
2023/01/25 09:03:35;;;;;;;0.00;0.00;;;3.90;99.90;;;;;;4930833;29;20034;-72
2023/01/25 09:06:01;;;;;;;0.43;0.32;;;3.90;99.90;;;;;;4930621;29;20031;-71
2023/01/25 09:08:26;;;;;;;0.00;0.00;;;3.90;99.90;;;;;;4930368;29;20102;-72
2023/01/25 09:10:52;;;;;;;0.00;0.00;;;3.80;99.90;;;;;;4929071;29;20027;-72
2023/01/25 09:13:18;;;;;;;0.00;0.00;;;3.90;99.90;;;;;;4930360;29;20107;-71
2023/01/25 09:15:43;;;;;;;0.00;0.00;;;3.90;99.90;;;;;;4927879;29;20038;-71
2023/01/25 09:18:09;;;;;;;0.00;0.00;;;3.70;99.90;;;;;;4927776;29;20504;-72
2023/01/25 09:20:38;;;;;;;0.00;0.00;;;3.60;99.90;;;;;;4932990;29;20110;-72
2023/01/25 09:23:04;;;;;;;0.00;0.00;;;3.60;99.90;;;;;;4930886;29;20274;-72
2023/01/25 09:25:29;;;;;;;0.00;0.00;;;3.50;99.90;;;;;;4945142;28;20039;-72
2023/01/25 09:27:55;;;;;;;0.00;0.00;;;3.50;99.90;;;;;;4943088;28;20574;-72
2023/01/25 09:30:21;;;;;;;0.00;0.00;;;3.60;99.90;;;;;;4930696;29;20024;-72
2023/01/25 09:32:50;;;;;;;0.00;0.00;;;3.60;99.90;;;;;;4928129;29;20786;-72
2023/01/25 09:35:17;;;;;;;0.00;0.00;;;3.70;99.90;;;;;;4911854;29;20040;-71
2023/01/25 09:37:42;;;;;;;0.00;0.00;;;3.70;99.90;;;;;;4927371;29;20050;-73
2023/01/25 09:40:21;;;;;;;0.00;0.00;;;3.80;99.90;;;;;;4927593;29;20027;-73
2023/01/25 09:42:52;;;;;;;0.00;0.00;;;4.00;99.90;;;;;;4927273;29;20052;-74
2023/01/25 09:45:29;;;;;;;0.00;0.00;;;4.10;99.90;;;;;;4925229;29;20035;-76
2023/01/25 09:48:01;;;;;;;;;;;4.20;99.90;;;;;;4930313;29;20508;-72
2023/01/25 09:50:41;;;;;;;0.00;0.00;;;4.30;99.90;;;;;;4926105;29;19907;-73
2023/01/25 09:53:13;;;;;;;0.00;0.00;;;4.20;99.90;;;;;;4929795;29;20034;-72
2023/01/25 09:55:39;;;;;;;0.00;0.00;;;4.30;99.90;;;;;;4931802;29;20031;-73
2023/01/25 09:58:13;;;;;;;0.00;0.00;;;4.20;99.90;;;;;;4927550;29;20110;-72
2023/01/25 10:00:49;;;;;;;0.00;0.00;;;4.10;99.90;;;;;;4928347;29;20038;-73
2023/01/25 10:03:31;;;;;;;0.00;0.00;;;4.20;99.90;;;;;;4928701;29;20024;-73
2023/01/25 10:05:59;;;;;;;0.00;0.00;;;4.10;99.90;;;;;;4925028;29;20050;-71
2023/01/25 10:09:18;;;;;;;0.00;0.00;;;3.90;99.90;;;;;;4929276;29;20027;-72
2023/01/25 10:11:44;;;;;;;0.00;0.00;;;3.80;99.90;;;;;;4894128;29;20028;-72
2023/01/25 10:14:14;;;;;;;0.00;0.00;;;3.80;99.90;;;;;;4924571;29;20039;-72
2023/01/25 10:16:46;;;;;;;0.00;0.00;;;3.90;99.90;;;;;;4928633;29;20274;-72
2023/01/25 10:19:11;;;;;;;0.00;0.00;;;4.10;99.90;;;;;;4930402;29;20024;-72
2023/01/25 10:21:47;;;;;;;0.00;0.00;;;4.20;99.90;;;;;;4927129;29;20028;-71
2023/01/25 10:24:22;;;;;;;0.00;0.00;;;4.20;99.90;;;;;;4926563;29;20039;-71
2023/01/25 10:26:55;;;;;;;0.00;0.00;;;4.10;99.90;;;;;;4928034;29;20063;-72
2023/01/25 10:29:34;;;;;;;0.00;0.00;;;4.20;99.90;;;;;;4924285;29;20032;-72
2023/01/25 10:32:01;;;;;;;0.00;0.00;;;4.30;99.90;;;;;;4925378;29;20024;-72
2023/01/25 10:34:48;;;;;;;0.00;0.00;;;4.20;99.90;;;;;;4928661;29;20132;-72
2023/01/25 10:37:30;;;;;;;0.00;0.00;;;4.30;99.90;;;;;;4927350;29;20038;-72
2023/01/25 10:40:03;;;;;;;0.00;0.00;;;4.40;99.90;;;;;;4926032;29;20023;-72
2023/01/25 10:42:35;;;;;;;0.00;0.00;;;4.30;99.90;;;;;;4927571;29;20421;-72
2023/01/25 10:45:00;;;;;;;0.00;0.00;;;4.00;99.90;;;;;;4924569;29;20655;-72
2023/01/25 10:47:29;;;;;;;0.00;0.00;;;4.10;99.90;;;;;;4924051;29;20094;-73
2023/01/25 10:49:59;;;;;;;0.00;0.00;;;4.20;99.90;;;;;;4930012;29;20449;-72
2023/01/25 10:52:30;;;;;;;0.00;0.00;;;4.00;99.90;;;;;;4924948;29;20102;-72
2023/01/25 10:55:15;;;;;;;0.00;0.00;;;4.10;99.90;;;;;;4922562;29;20024;-72
2023/01/25 10:57:57;;;;;;;0.00;0.00;;;4.20;99.90;;;;;;4932264;29;20031;-73
2023/01/25 11:00:24;;;;;;;0.00;0.00;;;4.10;99.90;;;;;;4924632;29;20658;-72
2023/01/25 11:02:49;;;;;;;1.25;0.43;;;4.20;99.90;;;;;;4927818;29;20028;-72
2023/01/25 11:05:18;;;;;;;0.00;0.00;;;4.30;99.90;;;;;;4927904;29;20382;-71
2023/01/25 11:07:48;;;;;;;0.00;0.00;;;4.30;99.90;;;;;;4931858;29;20059;-72
2023/01/25 11:10:35;;;;;;;0.00;0.00;;;4.30;99.90;;;;;;4924164;29;20118;-71
2023/01/25 11:13:18;;;;;;;0.00;0.00;;;4.30;99.90;;;;;;4924688;29;20360;-72
2023/01/25 11:15:53;;;;;;;0.00;0.00;;;4.40;99.90;;;;;;4930306;29;20024;-72
2023/01/25 11:18:24;;;;;;;0.00;0.00;;;4.40;99.90;;;;;;4930185;29;20473;-71
2023/01/25 11:21:06;;;;;;;0.00;0.00;;;4.40;99.90;;;;;;4931002;29;20038;-72
2023/01/25 11:23:33;;;;;;;0.00;0.00;;;4.40;99.90;;;;;;4932075;29;20047;-72
2023/01/25 11:26:18;;;;;;;0.00;0.00;;;4.40;99.90;;;;;;4931206;29;20078;-72
2023/01/25 11:28:48;;;;;;;0.00;0.00;;;4.30;99.90;;;;;;4931778;29;20078;-72
2023/01/25 11:31:19;;;;;;;0.00;0.00;;;4.40;99.90;;;;;;4930756;29;20034;-72
2023/01/25 11:33:45;;;;;;;0.00;0.00;;;4.50;99.90;;;;;;4932007;29;20059;-71
2023/01/25 11:36:31;;;;;;;0.00;0.00;;;4.40;99.90;;;;;;4934489;29;20059;-71
2023/01/25 11:39:20;;;;;;;0.00;0.00;;;4.40;99.90;;;;;;4928972;29;20439;-73
2023/01/25 11:42:02;;;;;;;0.00;0.00;;;4.50;99.90;;;;;;4931081;29;20027;-72
2023/01/25 11:44:42;;;;;;;0.00;0.00;;;4.50;99.90;;;;;;4927614;29;20016;-71
2023/01/25 11:47:32;;;;;;;0.00;0.00;;;4.50;99.90;;;;;;4937926;29;20035;-72
2023/01/25 11:50:03;;;;;;;0.00;0.00;;;4.50;99.90;;;;;;4936414;29;20028;-72
2023/01/25 11:52:47;;;;;;;0.00;0.00;;;4.50;99.90;;;;;;4936062;29;20048;-71
2023/01/25 11:55:23;;;;;;;0.00;0.00;;;4.50;99.90;;;;;;4944216;28;20123;-72
2023/01/25 11:58:16;;;;;;;0.00;0.00;;;4.50;99.90;;;;;;4932287;29;20024;-75
2023/01/25 12:01:20;;;;;;;0.00;0.00;;;4.50;99.90;;;;;;4928591;29;20027;-72
2023/01/25 12:03:58;;;;;;;0.00;0.00;;;4.30;99.90;;;;;;4926876;29;20027;-72
2023/01/25 12:06:39;;;;;;;0.00;0.00;;;4.30;99.90;;;;;;4923777;29;20493;-71
2023/01/25 12:09:14;;;;;;;0.00;0.00;;;4.20;99.90;;;;;;4935394;29;20626;-71
2023/01/25 12:12:10;;;;;;;0.00;0.00;;;3.90;99.90;;;;;;4930865;29;20024;-71
2023/01/25 12:14:57;;;;;;;0.00;0.00;;;3.90;99.90;;;;;;4930312;29;20043;-71
2023/01/25 12:17:34;;;;;;;0.00;0.00;;;3.90;99.90;;;;;;4931971;29;20051;-72
2023/01/25 12:20:03;;;;;;;;;;;4.00;99.90;;;;;;4928530;29;20049;-72
2023/01/25 12:22:37;;;;;;;0.30;0.17;;;3.90;99.90;;;;;;4929252;29;19997;-76
2023/01/25 12:25:19;;;;;;;0.00;0.00;;;3.80;99.90;;;;;;4923303;29;20125;-73
2023/01/25 12:28:14;;;;;;;0.00;0.00;;;3.80;99.90;;;;;;4938093;29;20122;-72
2023/01/25 12:30:52;;;;;;;0.00;0.00;;;3.60;99.90;;;;;;4928736;29;20105;-72
2023/01/25 12:33:30;;;;;;;0.00;0.00;;;3.70;99.90;;;;;;4927442;29;20030;-72
2023/01/25 12:36:05;;;;;;;0.00;0.00;;;3.80;99.90;;;;;;4927527;29;20090;-71
2023/01/25 12:38:57;;;;;;;0.00;0.00;;;3.70;99.90;;;;;;4931627;29;20036;-72
2023/01/25 12:41:37;;;;;;;0.93;0.30;;;3.80;99.90;;;;;;4944633;28;20090;-73
2023/01/25 12:44:24;;;;;;;0.00;0.00;;;3.90;99.90;;;;;;4929448;29;20020;-72
2023/01/25 12:47:08;;;;;;;0.15;0.15;;;3.80;99.90;;;;;;4927057;29;20028;-72
2023/01/25 12:50:04;;;;;;;0.00;0.00;;;3.70;99.90;;;;;;4933836;29;20102;-71
2023/01/25 12:52:36;;;;;;;0.00;0.00;;;3.60;99.90;;;;;;4925961;29;20036;-71
2023/01/25 12:55:05;;;;;;;0.00;0.00;;;3.50;99.90;;;;;;4931419;29;20095;-72
2023/01/25 12:57:56;;;;;;;0.00;0.00;;;3.30;99.90;;;;;;4926210;29;20582;-72
2023/01/25 13:00:52;;;;;;;0.00;0.00;;;3.50;99.90;;;;;;4926730;29;20023;-72
2023/01/25 13:03:55;;;;;;;0.00;0.00;;;3.50;99.90;;;;;;4926410;29;20096;-70
2023/01/25 13:06:30;;;;;;;0.00;0.00;;;3.70;99.90;;;;;;4914484;29;20039;-71
2023/01/25 13:09:02;;;;;;;0.00;0.00;;;3.80;99.90;;;;;;4923486;29;20035;-72
2023/01/25 13:11:47;;;;;;;0.00;0.00;;;3.80;99.90;;;;;;4928855;29;20410;-71
2023/01/25 13:14:15;;;;;;;0.00;0.00;;;3.80;99.90;;;;;;4928782;29;20101;-72
2023/01/25 13:16:42;;;;;;;0.00;0.00;;;3.80;99.90;;;;;;4929638;29;20046;-72
2023/01/25 13:19:40;;;;;;;0.00;0.00;;;3.80;99.90;;;;;;4932407;29;20098;-72